sensor_id;sensor_type;location;lat;lon;timestamp;P1;durP1;ratioP1;P2;durP2;ratioP2
17494;SDS011;8864;51.970;4.614;2022-10-16T00:01:59;2.10;;;0.93;;
17494;SDS011;8864;51.970;4.614;2022-10-16T00:04:35;1.25;;;0.73;;
17494;SDS011;8864;51.970;4.614;2022-10-16T00:07:06;2.60;;;0.70;;
17494;SDS011;8864;51.970;4.614;2022-10-16T00:09:41;1.20;;;0.70;;
17494;SDS011;8864;51.970;4.614;2022-10-16T00:12:08;1.30;;;0.75;;
17494;SDS011;8864;51.970;4.614;2022-10-16T00:14:35;4.47;;;0.90;;
17494;SDS011;8864;51.970;4.614;2022-10-16T00:17:02;3.00;;;0.70;;
17494;SDS011;8864;51.970;4.614;2022-10-16T00:19:42;1.30;;;0.68;;
17494;SDS011;8864;51.970;4.614;2022-10-16T00:22:17;1.55;;;0.80;;
17494;SDS011;8864;51.970;4.614;2022-10-16T00:24:43;1.80;;;0.98;;
17494;SDS011;8864;51.970;4.614;2022-10-16T00:27:11;1.17;;;0.70;;
17494;SDS011;8864;51.970;4.614;2022-10-16T00:29:38;2.13;;;0.75;;
17494;SDS011;8864;51.970;4.614;2022-10-16T00:32:04;1.08;;;0.70;;
17494;SDS011;8864;51.970;4.614;2022-10-16T00:34:31;3.17;;;0.90;;
17494;SDS011;8864;51.970;4.614;2022-10-16T00:37:00;2.78;;;0.93;;
17494;SDS011;8864;51.970;4.614;2022-10-16T00:39:31;1.65;;;0.70;;
17494;SDS011;8864;51.970;4.614;2022-10-16T00:42:01;1.02;;;0.65;;
17494;SDS011;8864;51.970;4.614;2022-10-16T00:44:42;4.22;;;0.77;;
17494;SDS011;8864;51.970;4.614;2022-10-16T00:47:19;1.90;;;0.73;;
17494;SDS011;8864;51.970;4.614;2022-10-16T00:52:33;2.40;;;0.90;;
17494;SDS011;8864;51.970;4.614;2022-10-16T00:55:03;1.75;;;0.60;;
17494;SDS011;8864;51.970;4.614;2022-10-16T00:57:32;1.90;;;0.85;;
17494;SDS011;8864;51.970;4.614;2022-10-16T01:00:01;1.10;;;0.70;;
17494;SDS011;8864;51.970;4.614;2022-10-16T01:02:33;2.85;;;0.70;;
17494;SDS011;8864;51.970;4.614;2022-10-16T01:05:09;1.42;;;0.70;;
17494;SDS011;8864;51.970;4.614;2022-10-16T01:07:41;1.65;;;0.65;;
17494;SDS011;8864;51.970;4.614;2022-10-16T01:10:24;3.20;;;0.80;;
17494;SDS011;8864;51.970;4.614;2022-10-16T01:13:21;2.75;;;0.82;;
17494;SDS011;8864;51.970;4.614;2022-10-16T01:15:51;1.05;;;0.70;;
17494;SDS011;8864;51.970;4.614;2022-10-16T01:18:36;1.77;;;0.68;;
17494;SDS011;8864;51.970;4.614;2022-10-16T01:21:15;1.55;;;0.80;;
17494;SDS011;8864;51.970;4.614;2022-10-16T01:23:51;1.38;;;0.77;;
17494;SDS011;8864;51.970;4.614;2022-10-16T01:27:00;0.52;;;0.50;;
17494;SDS011;8864;51.970;4.614;2022-10-16T01:29:58;1.77;;;0.55;;
17494;SDS011;8864;51.970;4.614;2022-10-16T01:32:37;1.88;;;0.70;;
17494;SDS011;8864;51.970;4.614;2022-10-16T01:35:08;2.05;;;0.60;;
17494;SDS011;8864;51.970;4.614;2022-10-16T01:37:48;1.30;;;0.70;;
17494;SDS011;8864;51.970;4.614;2022-10-16T01:40:19;0.70;;;0.70;;
17494;SDS011;8864;51.970;4.614;2022-10-16T01:42:55;1.13;;;0.60;;
17494;SDS011;8864;51.970;4.614;2022-10-16T01:45:51;0.70;;;0.60;;
17494;SDS011;8864;51.970;4.614;2022-10-16T01:48:19;0.88;;;0.70;;
17494;SDS011;8864;51.970;4.614;2022-10-16T01:50:55;1.48;;;0.73;;
17494;SDS011;8864;51.970;4.614;2022-10-16T01:53:24;2.65;;;0.88;;
17494;SDS011;8864;51.970;4.614;2022-10-16T01:56:21;1.20;;;0.57;;
17494;SDS011;8864;51.970;4.614;2022-10-16T01:58:52;1.23;;;0.63;;
17494;SDS011;8864;51.970;4.614;2022-10-16T02:01:34;1.15;;;0.50;;
17494;SDS011;8864;51.970;4.614;2022-10-16T02:04:15;3.83;;;0.63;;
17494;SDS011;8864;51.970;4.614;2022-10-16T02:06:45;3.97;;;0.70;;
17494;SDS011;8864;51.970;4.614;2022-10-16T02:09:14;1.17;;;0.63;;
17494;SDS011;8864;51.970;4.614;2022-10-16T02:11:44;1.00;;;0.50;;
17494;SDS011;8864;51.970;4.614;2022-10-16T02:14:16;1.17;;;0.60;;
17494;SDS011;8864;51.970;4.614;2022-10-16T02:16:45;1.88;;;0.70;;
17494;SDS011;8864;51.970;4.614;2022-10-16T02:19:28;1.23;;;0.50;;
17494;SDS011;8864;51.970;4.614;2022-10-16T02:22:01;1.45;;;0.60;;
17494;SDS011;8864;51.970;4.614;2022-10-16T02:24:36;1.58;;;0.77;;
17494;SDS011;8864;51.970;4.614;2022-10-16T02:27:08;0.82;;;0.57;;
17494;SDS011;8864;51.970;4.614;2022-10-16T02:29:47;0.60;;;0.47;;
17494;SDS011;8864;51.970;4.614;2022-10-16T02:32:19;1.05;;;0.50;;
17494;SDS011;8864;51.970;4.614;2022-10-16T02:34:49;0.57;;;0.50;;
17494;SDS011;8864;51.970;4.614;2022-10-16T02:37:17;0.75;;;0.60;;
17494;SDS011;8864;51.970;4.614;2022-10-16T02:39:45;1.35;;;0.70;;
17494;SDS011;8864;51.970;4.614;2022-10-16T02:42:12;1.25;;;0.70;;
17494;SDS011;8864;51.970;4.614;2022-10-16T02:44:55;2.65;;;1.00;;
17494;SDS011;8864;51.970;4.614;2022-10-16T02:47:22;1.75;;;0.80;;
17494;SDS011;8864;51.970;4.614;2022-10-16T02:49:48;1.80;;;0.60;;
17494;SDS011;8864;51.970;4.614;2022-10-16T02:52:15;1.00;;;0.70;;
17494;SDS011;8864;51.970;4.614;2022-10-16T02:54:48;2.70;;;0.90;;
17494;SDS011;8864;51.970;4.614;2022-10-16T02:57:15;0.68;;;0.50;;
17494;SDS011;8864;51.970;4.614;2022-10-16T02:59:43;1.20;;;0.70;;
17494;SDS011;8864;51.970;4.614;2022-10-16T03:02:11;1.33;;;0.60;;
17494;SDS011;8864;51.970;4.614;2022-10-16T03:04:38;3.00;;;0.65;;
17494;SDS011;8864;51.970;4.614;2022-10-16T03:07:11;1.35;;;0.63;;
17494;SDS011;8864;51.970;4.614;2022-10-16T03:09:38;1.38;;;0.70;;
17494;SDS011;8864;51.970;4.614;2022-10-16T03:12:04;1.75;;;0.73;;
17494;SDS011;8864;51.970;4.614;2022-10-16T03:14:31;1.70;;;0.65;;
17494;SDS011;8864;51.970;4.614;2022-10-16T03:19:31;2.25;;;0.63;;
17494;SDS011;8864;51.970;4.614;2022-10-16T03:22:09;1.80;;;0.70;;
17494;SDS011;8864;51.970;4.614;2022-10-16T03:24:35;1.42;;;0.63;;
17494;SDS011;8864;51.970;4.614;2022-10-16T03:27:02;0.88;;;0.70;;
17494;SDS011;8864;51.970;4.614;2022-10-16T03:29:30;1.55;;;0.60;;
17494;SDS011;8864;51.970;4.614;2022-10-16T03:31:57;0.70;;;0.60;;
17494;SDS011;8864;51.970;4.614;2022-10-16T03:34:24;1.27;;;0.70;;
17494;SDS011;8864;51.970;4.614;2022-10-16T03:36:53;2.90;;;1.00;;
17494;SDS011;8864;51.970;4.614;2022-10-16T03:39:20;1.58;;;0.73;;
17494;SDS011;8864;51.970;4.614;2022-10-16T03:42:01;1.75;;;0.60;;
17494;SDS011;8864;51.970;4.614;2022-10-16T03:44:28;1.33;;;0.70;;
17494;SDS011;8864;51.970;4.614;2022-10-16T03:46:55;1.58;;;0.73;;
17494;SDS011;8864;51.970;4.614;2022-10-16T03:49:28;1.00;;;0.60;;
17494;SDS011;8864;51.970;4.614;2022-10-16T03:52:05;3.22;;;0.60;;
17494;SDS011;8864;51.970;4.614;2022-10-16T03:54:32;1.73;;;0.80;;
17494;SDS011;8864;51.970;4.614;2022-10-16T03:56:58;0.82;;;0.60;;
17494;SDS011;8864;51.970;4.614;2022-10-16T03:59:25;1.23;;;0.70;;
17494;SDS011;8864;51.970;4.614;2022-10-16T04:01:52;1.92;;;0.70;;
17494;SDS011;8864;51.970;4.614;2022-10-16T04:04:21;0.88;;;0.65;;
17494;SDS011;8864;51.970;4.614;2022-10-16T04:06:47;1.17;;;0.70;;
17494;SDS011;8864;51.970;4.614;2022-10-16T04:09:23;0.90;;;0.65;;
17494;SDS011;8864;51.970;4.614;2022-10-16T04:11:50;0.82;;;0.50;;
17494;SDS011;8864;51.970;4.614;2022-10-16T04:14:19;3.30;;;0.73;;
17494;SDS011;8864;51.970;4.614;2022-10-16T04:16:46;1.52;;;0.60;;
17494;SDS011;8864;51.970;4.614;2022-10-16T04:19:25;1.73;;;0.57;;
17494;SDS011;8864;51.970;4.614;2022-10-16T04:21:53;1.13;;;0.77;;
17494;SDS011;8864;51.970;4.614;2022-10-16T04:24:21;1.42;;;0.70;;
17494;SDS011;8864;51.970;4.614;2022-10-16T04:27:07;3.10;;;0.68;;
17494;SDS011;8864;51.970;4.614;2022-10-16T04:29:37;1.38;;;0.70;;
17494;SDS011;8864;51.970;4.614;2022-10-16T04:32:04;1.92;;;0.60;;
17494;SDS011;8864;51.970;4.614;2022-10-16T04:34:31;1.67;;;0.82;;
17494;SDS011;8864;51.970;4.614;2022-10-16T04:36:57;2.78;;;0.70;;
17494;SDS011;8864;51.970;4.614;2022-10-16T04:39:25;1.33;;;0.70;;
17494;SDS011;8864;51.970;4.614;2022-10-16T04:41:52;2.10;;;1.05;;
17494;SDS011;8864;51.970;4.614;2022-10-16T04:44:21;1.17;;;0.65;;
17494;SDS011;8864;51.970;4.614;2022-10-16T04:46:49;4.35;;;0.60;;
17494;SDS011;8864;51.970;4.614;2022-10-16T04:49:17;0.70;;;0.60;;
17494;SDS011;8864;51.970;4.614;2022-10-16T04:51:47;6.22;;;0.68;;
17494;SDS011;8864;51.970;4.614;2022-10-16T04:54:14;5.88;;;0.90;;
17494;SDS011;8864;51.970;4.614;2022-10-16T04:56:42;1.88;;;0.80;;
17494;SDS011;8864;51.970;4.614;2022-10-16T04:59:15;1.77;;;0.80;;
17494;SDS011;8864;51.970;4.614;2022-10-16T05:01:42;1.73;;;0.68;;
17494;SDS011;8864;51.970;4.614;2022-10-16T05:04:09;0.88;;;0.60;;
17494;SDS011;8864;51.970;4.614;2022-10-16T05:06:42;1.52;;;0.68;;
17494;SDS011;8864;51.970;4.614;2022-10-16T05:09:09;1.17;;;0.60;;
17494;SDS011;8864;51.970;4.614;2022-10-16T05:11:38;1.85;;;0.90;;
17494;SDS011;8864;51.970;4.614;2022-10-16T05:14:06;6.63;;;0.60;;
17494;SDS011;8864;51.970;4.614;2022-10-16T05:16:39;2.95;;;0.80;;
17494;SDS011;8864;51.970;4.614;2022-10-16T05:19:06;1.20;;;0.60;;
17494;SDS011;8864;51.970;4.614;2022-10-16T05:21:56;2.03;;;0.60;;
17494;SDS011;8864;51.970;4.614;2022-10-16T05:24:29;0.80;;;0.45;;
17494;SDS011;8864;51.970;4.614;2022-10-16T05:27:26;2.17;;;0.82;;
17494;SDS011;8864;51.970;4.614;2022-10-16T05:29:54;2.08;;;0.57;;
17494;SDS011;8864;51.970;4.614;2022-10-16T05:32:21;1.00;;;0.50;;
17494;SDS011;8864;51.970;4.614;2022-10-16T05:34:51;2.22;;;0.50;;
17494;SDS011;8864;51.970;4.614;2022-10-16T05:37:17;3.60;;;0.80;;
17494;SDS011;8864;51.970;4.614;2022-10-16T05:39:50;2.05;;;0.70;;
17494;SDS011;8864;51.970;4.614;2022-10-16T05:42:17;1.90;;;0.60;;
17494;SDS011;8864;51.970;4.614;2022-10-16T05:44:50;4.40;;;0.93;;
17494;SDS011;8864;51.970;4.614;2022-10-16T05:47:18;1.35;;;0.73;;
17494;SDS011;8864;51.970;4.614;2022-10-16T05:49:52;1.92;;;0.82;;
17494;SDS011;8864;51.970;4.614;2022-10-16T05:52:43;1.13;;;0.60;;
17494;SDS011;8864;51.970;4.614;2022-10-16T05:55:10;1.30;;;0.60;;
17494;SDS011;8864;51.970;4.614;2022-10-16T05:57:37;2.22;;;0.88;;
17494;SDS011;8864;51.970;4.614;2022-10-16T06:00:06;2.45;;;0.60;;
17494;SDS011;8864;51.970;4.614;2022-10-16T06:02:39;1.92;;;0.70;;
17494;SDS011;8864;51.970;4.614;2022-10-16T06:05:06;1.63;;;0.60;;
17494;SDS011;8864;51.970;4.614;2022-10-16T06:07:33;2.53;;;0.88;;
17494;SDS011;8864;51.970;4.614;2022-10-16T06:10:02;1.52;;;0.60;;
17494;SDS011;8864;51.970;4.614;2022-10-16T06:12:29;1.65;;;0.75;;
17494;SDS011;8864;51.970;4.614;2022-10-16T06:14:56;2.00;;;0.70;;
17494;SDS011;8864;51.970;4.614;2022-10-16T06:17:26;1.40;;;0.70;;
17494;SDS011;8864;51.970;4.614;2022-10-16T06:19:54;2.85;;;0.70;;
17494;SDS011;8864;51.970;4.614;2022-10-16T06:22:21;2.50;;;0.50;;
17494;SDS011;8864;51.970;4.614;2022-10-16T06:24:47;1.65;;;0.60;;
17494;SDS011;8864;51.970;4.614;2022-10-16T06:27:27;2.25;;;0.55;;
17494;SDS011;8864;51.970;4.614;2022-10-16T06:29:54;2.80;;;0.63;;
17494;SDS011;8864;51.970;4.614;2022-10-16T06:32:22;0.68;;;0.57;;
17494;SDS011;8864;51.970;4.614;2022-10-16T06:34:49;3.00;;;1.00;;
17494;SDS011;8864;51.970;4.614;2022-10-16T06:37:17;2.47;;;0.80;;
17494;SDS011;8864;51.970;4.614;2022-10-16T06:39:44;2.25;;;0.70;;
17494;SDS011;8864;51.970;4.614;2022-10-16T06:42:10;1.33;;;0.77;;
17494;SDS011;8864;51.970;4.614;2022-10-16T06:44:37;6.65;;;1.00;;
17494;SDS011;8864;51.970;4.614;2022-10-16T06:49:46;3.35;;;0.60;;
17494;SDS011;8864;51.970;4.614;2022-10-16T06:52:13;4.38;;;0.50;;
17494;SDS011;8864;51.970;4.614;2022-10-16T06:57:41;4.70;;;0.85;;
17494;SDS011;8864;51.970;4.614;2022-10-16T07:00:08;3.78;;;1.02;;
17494;SDS011;8864;51.970;4.614;2022-10-16T07:02:35;2.17;;;0.80;;
17494;SDS011;8864;51.970;4.614;2022-10-16T07:05:02;3.15;;;0.80;;
17494;SDS011;8864;51.970;4.614;2022-10-16T07:07:29;4.43;;;0.98;;
17494;SDS011;8864;51.970;4.614;2022-10-16T07:09:56;1.75;;;0.80;;
17494;SDS011;8864;51.970;4.614;2022-10-16T07:12:23;2.63;;;0.60;;
17494;SDS011;8864;51.970;4.614;2022-10-16T07:17:35;4.90;;;0.60;;
17494;SDS011;8864;51.970;4.614;2022-10-16T07:20:02;3.83;;;0.75;;
17494;SDS011;8864;51.970;4.614;2022-10-16T07:22:30;4.07;;;0.80;;
17494;SDS011;8864;51.970;4.614;2022-10-16T07:24:56;2.47;;;0.63;;
17494;SDS011;8864;51.970;4.614;2022-10-16T07:27:27;2.28;;;0.68;;
17494;SDS011;8864;51.970;4.614;2022-10-16T07:36:36;2.55;;;0.80;;
17494;SDS011;8864;51.970;4.614;2022-10-16T07:39:15;1.95;;;0.70;;
17494;SDS011;8864;51.970;4.614;2022-10-16T07:42:00;3.20;;;0.93;;
17494;SDS011;8864;51.970;4.614;2022-10-16T07:44:27;1.30;;;0.70;;
17494;SDS011;8864;51.970;4.614;2022-10-16T07:47:06;3.33;;;0.63;;
17494;SDS011;8864;51.970;4.614;2022-10-16T07:49:33;4.45;;;1.13;;
17494;SDS011;8864;51.970;4.614;2022-10-16T07:52:15;6.18;;;0.98;;
17494;SDS011;8864;51.970;4.614;2022-10-16T07:57:35;9.40;;;1.55;;
17494;SDS011;8864;51.970;4.614;2022-10-16T08:00:14;4.45;;;0.98;;
17494;SDS011;8864;51.970;4.614;2022-10-16T08:02:47;6.75;;;0.85;;
17494;SDS011;8864;51.970;4.614;2022-10-16T08:07:41;4.68;;;1.10;;
17494;SDS011;8864;51.970;4.614;2022-10-16T08:10:17;26.17;;;4.72;;
17494;SDS011;8864;51.970;4.614;2022-10-16T08:12:47;15.00;;;3.22;;
17494;SDS011;8864;51.970;4.614;2022-10-16T08:15:14;58.03;;;8.25;;
17494;SDS011;8864;51.970;4.614;2022-10-16T08:17:41;42.65;;;7.18;;
17494;SDS011;8864;51.970;4.614;2022-10-16T08:20:08;38.78;;;6.85;;
17494;SDS011;8864;51.970;4.614;2022-10-16T08:22:36;38.33;;;6.60;;
17494;SDS011;8864;51.970;4.614;2022-10-16T08:25:04;38.13;;;6.38;;
17494;SDS011;8864;51.970;4.614;2022-10-16T08:27:31;27.77;;;6.38;;
17494;SDS011;8864;51.970;4.614;2022-10-16T08:29:59;30.48;;;5.78;;
17494;SDS011;8864;51.970;4.614;2022-10-16T08:32:26;30.05;;;5.82;;
17494;SDS011;8864;51.970;4.614;2022-10-16T08:40:42;28.38;;;4.60;;
17494;SDS011;8864;51.970;4.614;2022-10-16T08:43:12;29.52;;;5.43;;
17494;SDS011;8864;51.970;4.614;2022-10-16T08:45:57;20.08;;;4.28;;
17494;SDS011;8864;51.970;4.614;2022-10-16T08:48:35;21.98;;;3.75;;
17494;SDS011;8864;51.970;4.614;2022-10-16T08:51:15;18.33;;;4.07;;
17494;SDS011;8864;51.970;4.614;2022-10-16T08:53:48;14.20;;;3.20;;
17494;SDS011;8864;51.970;4.614;2022-10-16T08:56:28;15.38;;;3.47;;
17494;SDS011;8864;51.970;4.614;2022-10-16T08:58:57;17.30;;;3.88;;
17494;SDS011;8864;51.970;4.614;2022-10-16T09:01:25;17.17;;;3.47;;
17494;SDS011;8864;51.970;4.614;2022-10-16T09:04:07;11.50;;;2.88;;
17494;SDS011;8864;51.970;4.614;2022-10-16T09:06:50;15.25;;;2.72;;
17494;SDS011;8864;51.970;4.614;2022-10-16T09:09:24;12.55;;;3.20;;
17494;SDS011;8864;51.970;4.614;2022-10-16T09:12:10;7.78;;;2.28;;
17494;SDS011;8864;51.970;4.614;2022-10-16T09:14:48;11.77;;;2.83;;
17494;SDS011;8864;51.970;4.614;2022-10-16T09:17:24;11.13;;;2.08;;
17494;SDS011;8864;51.970;4.614;2022-10-16T09:23:15;10.60;;;1.70;;
17494;SDS011;8864;51.970;4.614;2022-10-16T09:25:44;9.23;;;2.30;;
17494;SDS011;8864;51.970;4.614;2022-10-16T09:28:15;15.52;;;2.40;;
17494;SDS011;8864;51.970;4.614;2022-10-16T09:30:43;8.50;;;2.10;;
17494;SDS011;8864;51.970;4.614;2022-10-16T09:33:11;8.70;;;1.90;;
17494;SDS011;8864;51.970;4.614;2022-10-16T09:35:40;7.90;;;1.77;;
17494;SDS011;8864;51.970;4.614;2022-10-16T09:38:24;9.13;;;1.85;;
17494;SDS011;8864;51.970;4.614;2022-10-16T09:40:53;6.53;;;1.70;;
17494;SDS011;8864;51.970;4.614;2022-10-16T09:43:37;6.35;;;1.73;;
17494;SDS011;8864;51.970;4.614;2022-10-16T09:47:01;8.10;;;1.58;;
17494;SDS011;8864;51.970;4.614;2022-10-16T09:49:35;6.13;;;1.70;;
17494;SDS011;8864;51.970;4.614;2022-10-16T09:52:03;7.65;;;1.52;;
17494;SDS011;8864;51.970;4.614;2022-10-16T09:54:30;5.95;;;1.50;;
17494;SDS011;8864;51.970;4.614;2022-10-16T09:57:04;4.80;;;1.70;;
17494;SDS011;8864;51.970;4.614;2022-10-16T09:59:33;7.78;;;1.45;;
17494;SDS011;8864;51.970;4.614;2022-10-16T10:02:01;9.02;;;1.58;;
17494;SDS011;8864;51.970;4.614;2022-10-16T10:04:40;8.23;;;2.25;;
17494;SDS011;8864;51.970;4.614;2022-10-16T10:10:56;9.85;;;1.60;;
17494;SDS011;8864;51.970;4.614;2022-10-16T10:13:35;4.60;;;1.42;;
17494;SDS011;8864;51.970;4.614;2022-10-16T10:18:57;7.18;;;1.60;;
17494;SDS011;8864;51.970;4.614;2022-10-16T10:21:37;9.35;;;1.58;;
17494;SDS011;8864;51.970;4.614;2022-10-16T10:24:10;6.97;;;1.38;;
17494;SDS011;8864;51.970;4.614;2022-10-16T10:27:36;9.07;;;1.80;;
17494;SDS011;8864;51.970;4.614;2022-10-16T10:30:24;4.88;;;1.00;;
17494;SDS011;8864;51.970;4.614;2022-10-16T10:33:06;6.70;;;1.45;;
17494;SDS011;8864;51.970;4.614;2022-10-16T10:35:54;6.88;;;1.48;;
17494;SDS011;8864;51.970;4.614;2022-10-16T10:38:39;4.20;;;1.60;;
17494;SDS011;8864;51.970;4.614;2022-10-16T10:41:29;5.53;;;1.08;;
17494;SDS011;8864;51.970;4.614;2022-10-16T10:44:41;5.38;;;1.38;;
17494;SDS011;8864;51.970;4.614;2022-10-16T10:47:40;4.25;;;1.30;;
17494;SDS011;8864;51.970;4.614;2022-10-16T10:53:03;6.32;;;1.40;;
17494;SDS011;8864;51.970;4.614;2022-10-16T10:55:52;6.50;;;1.38;;
17494;SDS011;8864;51.970;4.614;2022-10-16T10:58:42;8.95;;;1.10;;
17494;SDS011;8864;51.970;4.614;2022-10-16T11:01:32;8.60;;;1.60;;
17494;SDS011;8864;51.970;4.614;2022-10-16T11:04:11;5.50;;;1.20;;
17494;SDS011;8864;51.970;4.614;2022-10-16T11:06:57;7.18;;;1.40;;
17494;SDS011;8864;51.970;4.614;2022-10-16T11:09:28;7.18;;;1.45;;
17494;SDS011;8864;51.970;4.614;2022-10-16T11:12:00;5.40;;;1.33;;
17494;SDS011;8864;51.970;4.614;2022-10-16T11:14:34;6.75;;;1.20;;
17494;SDS011;8864;51.970;4.614;2022-10-16T11:17:08;9.25;;;1.70;;
17494;SDS011;8864;51.970;4.614;2022-10-16T11:19:40;7.63;;;1.38;;
17494;SDS011;8864;51.970;4.614;2022-10-16T11:22:13;8.73;;;1.35;;
17494;SDS011;8864;51.970;4.614;2022-10-16T11:24:45;5.65;;;1.05;;
17494;SDS011;8864;51.970;4.614;2022-10-16T11:30:13;6.18;;;1.27;;
17494;SDS011;8864;51.970;4.614;2022-10-16T11:32:50;5.90;;;1.15;;
17494;SDS011;8864;51.970;4.614;2022-10-16T11:35:41;6.93;;;1.23;;
17494;SDS011;8864;51.970;4.614;2022-10-16T11:38:14;8.70;;;1.33;;
17494;SDS011;8864;51.970;4.614;2022-10-16T11:41:03;4.35;;;1.10;;
17494;SDS011;8864;51.970;4.614;2022-10-16T11:43:37;4.75;;;1.27;;
17494;SDS011;8864;51.970;4.614;2022-10-16T11:46:10;5.43;;;1.00;;
17494;SDS011;8864;51.970;4.614;2022-10-16T11:48:41;9.48;;;1.33;;
17494;SDS011;8864;51.970;4.614;2022-10-16T11:51:33;6.03;;;1.13;;
17494;SDS011;8864;51.970;4.614;2022-10-16T11:54:22;5.50;;;1.17;;
17494;SDS011;8864;51.970;4.614;2022-10-16T11:56:54;4.78;;;1.25;;
17494;SDS011;8864;51.970;4.614;2022-10-16T11:59:26;6.90;;;1.30;;
17494;SDS011;8864;51.970;4.614;2022-10-16T12:02:26;6.78;;;1.00;;
17494;SDS011;8864;51.970;4.614;2022-10-16T12:05:19;6.38;;;1.30;;
17494;SDS011;8864;51.970;4.614;2022-10-16T12:07:55;7.68;;;1.33;;
17494;SDS011;8864;51.970;4.614;2022-10-16T12:10:30;8.50;;;1.40;;
17494;SDS011;8864;51.970;4.614;2022-10-16T12:16:03;4.78;;;1.08;;
17494;SDS011;8864;51.970;4.614;2022-10-16T12:18:46;3.78;;;1.00;;
17494;SDS011;8864;51.970;4.614;2022-10-16T12:21:15;4.32;;;1.42;;
17494;SDS011;8864;51.970;4.614;2022-10-16T12:23:47;5.93;;;1.00;;
17494;SDS011;8864;51.970;4.614;2022-10-16T12:26:24;4.30;;;1.13;;
17494;SDS011;8864;51.970;4.614;2022-10-16T12:28:53;3.97;;;1.10;;
17494;SDS011;8864;51.970;4.614;2022-10-16T12:31:21;5.47;;;1.23;;
17494;SDS011;8864;51.970;4.614;2022-10-16T12:33:54;8.15;;;1.60;;
17494;SDS011;8864;51.970;4.614;2022-10-16T12:36:27;4.22;;;0.95;;
17494;SDS011;8864;51.970;4.614;2022-10-16T12:38:56;4.40;;;1.08;;
17494;SDS011;8864;51.970;4.614;2022-10-16T12:41:25;4.07;;;1.23;;
17494;SDS011;8864;51.970;4.614;2022-10-16T12:43:53;5.07;;;1.20;;
17494;SDS011;8864;51.970;4.614;2022-10-16T12:46:26;5.88;;;0.90;;
17494;SDS011;8864;51.970;4.614;2022-10-16T12:49:14;3.65;;;1.23;;
17494;SDS011;8864;51.970;4.614;2022-10-16T12:51:49;6.32;;;1.45;;
17494;SDS011;8864;51.970;4.614;2022-10-16T12:54:17;4.53;;;1.00;;
17494;SDS011;8864;51.970;4.614;2022-10-16T12:56:50;2.08;;;0.73;;
17494;SDS011;8864;51.970;4.614;2022-10-16T12:59:26;3.05;;;1.00;;
17494;SDS011;8864;51.970;4.614;2022-10-16T13:05:13;4.47;;;1.15;;
17494;SDS011;8864;51.970;4.614;2022-10-16T13:08:02;5.70;;;1.10;;
17494;SDS011;8864;51.970;4.614;2022-10-16T13:10:39;6.68;;;1.10;;
17494;SDS011;8864;51.970;4.614;2022-10-16T13:13:18;5.10;;;0.90;;
17494;SDS011;8864;51.970;4.614;2022-10-16T13:16:09;3.55;;;0.90;;
17494;SDS011;8864;51.970;4.614;2022-10-16T13:18:50;1.42;;;0.60;;
17494;SDS011;8864;51.970;4.614;2022-10-16T13:21:31;5.55;;;1.02;;
17494;SDS011;8864;51.970;4.614;2022-10-16T13:24:12;1.52;;;0.68;;
17494;SDS011;8864;51.970;4.614;2022-10-16T13:27:00;3.80;;;0.80;;
17494;SDS011;8864;51.970;4.614;2022-10-16T13:29:41;5.03;;;1.00;;
17494;SDS011;8864;51.970;4.614;2022-10-16T13:32:18;2.20;;;0.80;;
17494;SDS011;8864;51.970;4.614;2022-10-16T13:34:46;4.32;;;0.90;;
17494;SDS011;8864;51.970;4.614;2022-10-16T13:37:16;5.75;;;0.90;;
17494;SDS011;8864;51.970;4.614;2022-10-16T13:45:51;4.57;;;0.85;;
17494;SDS011;8864;51.970;4.614;2022-10-16T13:48:19;2.53;;;1.00;;
17494;SDS011;8864;51.970;4.614;2022-10-16T13:53:54;2.65;;;1.10;;
17494;SDS011;8864;51.970;4.614;2022-10-16T13:58:57;4.90;;;1.10;;
17494;SDS011;8864;51.970;4.614;2022-10-16T14:01:40;1.75;;;0.70;;
17494;SDS011;8864;51.970;4.614;2022-10-16T14:04:09;2.72;;;0.68;;
17494;SDS011;8864;51.970;4.614;2022-10-16T14:06:40;5.40;;;0.80;;
17494;SDS011;8864;51.970;4.614;2022-10-16T14:09:09;4.45;;;1.00;;
17494;SDS011;8864;51.970;4.614;2022-10-16T14:11:45;3.28;;;0.80;;
17494;SDS011;8864;51.970;4.614;2022-10-16T14:14:18;3.13;;;1.10;;
17494;SDS011;8864;51.970;4.614;2022-10-16T14:19:49;1.88;;;0.70;;
17494;SDS011;8864;51.970;4.614;2022-10-16T14:22:22;1.23;;;0.65;;
17494;SDS011;8864;51.970;4.614;2022-10-16T14:25:35;2.63;;;0.90;;
17494;SDS011;8864;51.970;4.614;2022-10-16T14:28:20;3.42;;;0.80;;
17494;SDS011;8864;51.970;4.614;2022-10-16T14:31:23;2.38;;;0.90;;
17494;SDS011;8864;51.970;4.614;2022-10-16T14:34:41;3.15;;;0.65;;
17494;SDS011;8864;51.970;4.614;2022-10-16T14:37:09;4.10;;;0.73;;
17494;SDS011;8864;51.970;4.614;2022-10-16T14:39:58;1.75;;;0.60;;
17494;SDS011;8864;51.970;4.614;2022-10-16T14:42:25;2.47;;;0.70;;
17494;SDS011;8864;51.970;4.614;2022-10-16T14:44:57;4.18;;;0.80;;
17494;SDS011;8864;51.970;4.614;2022-10-16T14:47:25;2.47;;;0.90;;
17494;SDS011;8864;51.970;4.614;2022-10-16T14:49:54;2.80;;;0.60;;
17494;SDS011;8864;51.970;4.614;2022-10-16T14:52:24;5.75;;;0.90;;
17494;SDS011;8864;51.970;4.614;2022-10-16T14:54:51;2.05;;;0.60;;
17494;SDS011;8864;51.970;4.614;2022-10-16T14:57:22;2.42;;;0.70;;
17494;SDS011;8864;51.970;4.614;2022-10-16T14:59:52;2.05;;;0.68;;
17494;SDS011;8864;51.970;4.614;2022-10-16T15:02:22;2.40;;;0.80;;
17494;SDS011;8864;51.970;4.614;2022-10-16T15:05:07;1.33;;;0.63;;
17494;SDS011;8864;51.970;4.614;2022-10-16T15:07:39;1.52;;;0.60;;
17494;SDS011;8864;51.970;4.614;2022-10-16T15:10:07;1.58;;;0.60;;
17494;SDS011;8864;51.970;4.614;2022-10-16T15:12:34;1.13;;;0.70;;
17494;SDS011;8864;51.970;4.614;2022-10-16T15:15:11;2.13;;;0.60;;
17494;SDS011;8864;51.970;4.614;2022-10-16T15:18:03;1.95;;;0.60;;
17494;SDS011;8864;51.970;4.614;2022-10-16T15:20:32;1.95;;;0.52;;
17494;SDS011;8864;51.970;4.614;2022-10-16T15:23:02;4.13;;;0.65;;
17494;SDS011;8864;51.970;4.614;2022-10-16T15:28:22;2.22;;;0.73;;
17494;SDS011;8864;51.970;4.614;2022-10-16T15:30:51;5.47;;;0.90;;
17494;SDS011;8864;51.970;4.614;2022-10-16T15:33:20;1.90;;;0.52;;
17494;SDS011;8864;51.970;4.614;2022-10-16T15:35:50;2.72;;;0.65;;
17494;SDS011;8864;51.970;4.614;2022-10-16T15:38:18;2.55;;;0.82;;
17494;SDS011;8864;51.970;4.614;2022-10-16T15:40:46;5.60;;;0.70;;
17494;SDS011;8864;51.970;4.614;2022-10-16T15:43:14;3.42;;;0.70;;
17494;SDS011;8864;51.970;4.614;2022-10-16T15:45:41;3.33;;;0.98;;
17494;SDS011;8864;51.970;4.614;2022-10-16T15:48:10;4.07;;;0.98;;
17494;SDS011;8864;51.970;4.614;2022-10-16T15:50:38;6.78;;;1.33;;
17494;SDS011;8864;51.970;4.614;2022-10-16T15:53:07;1.50;;;0.52;;
17494;SDS011;8864;51.970;4.614;2022-10-16T15:55:34;3.72;;;0.98;;
17494;SDS011;8864;51.970;4.614;2022-10-16T15:58:03;1.13;;;0.47;;
17494;SDS011;8864;51.970;4.614;2022-10-16T16:00:31;4.07;;;0.60;;
17494;SDS011;8864;51.970;4.614;2022-10-16T16:02:58;2.90;;;0.73;;
17494;SDS011;8864;51.970;4.614;2022-10-16T16:05:24;4.60;;;0.90;;
17494;SDS011;8864;51.970;4.614;2022-10-16T16:07:52;4.88;;;0.80;;
17494;SDS011;8864;51.970;4.614;2022-10-16T16:10:21;1.52;;;0.75;;
17494;SDS011;8864;51.970;4.614;2022-10-16T16:12:48;4.15;;;0.70;;
17494;SDS011;8864;51.970;4.614;2022-10-16T16:15:21;3.20;;;1.02;;
17494;SDS011;8864;51.970;4.614;2022-10-16T16:17:57;8.57;;;1.48;;
17494;SDS011;8864;51.970;4.614;2022-10-16T16:20:25;13.43;;;1.70;;
17494;SDS011;8864;51.970;4.614;2022-10-16T16:22:52;10.73;;;1.40;;
17494;SDS011;8864;51.970;4.614;2022-10-16T16:25:26;14.43;;;1.33;;
17494;SDS011;8864;51.970;4.614;2022-10-16T16:27:54;7.97;;;1.35;;
17494;SDS011;8864;51.970;4.614;2022-10-16T16:30:21;8.57;;;1.05;;
17494;SDS011;8864;51.970;4.614;2022-10-16T16:32:57;9.18;;;0.90;;
17494;SDS011;8864;51.970;4.614;2022-10-16T16:35:24;5.30;;;0.93;;
17494;SDS011;8864;51.970;4.614;2022-10-16T16:37:50;8.38;;;1.13;;
17494;SDS011;8864;51.970;4.614;2022-10-16T16:40:31;11.55;;;1.50;;
17494;SDS011;8864;51.970;4.614;2022-10-16T16:42:58;8.85;;;1.20;;
17494;SDS011;8864;51.970;4.614;2022-10-16T16:45:24;6.20;;;1.15;;
17494;SDS011;8864;51.970;4.614;2022-10-16T16:47:51;4.07;;;1.00;;
17494;SDS011;8864;51.970;4.614;2022-10-16T16:50:18;12.68;;;1.08;;